sensor_id;sensor_type;location;lat;lon;timestamp;temperature;humidity
22769;DHT22;13001;51.968;5.918;2024-02-23T00:01:07;5.90;99.90
22769;DHT22;13001;51.968;5.918;2024-02-23T00:03:34;5.90;99.90
22769;DHT22;13001;51.968;5.918;2024-02-23T00:06:02;5.90;99.90
22769;DHT22;13001;51.968;5.918;2024-02-23T00:08:29;5.90;99.90
22769;DHT22;13001;51.968;5.918;2024-02-23T00:10:56;5.90;99.90
22769;DHT22;13001;51.968;5.918;2024-02-23T00:13:22;5.90;99.90
22769;DHT22;13001;51.968;5.918;2024-02-23T00:15:49;5.90;99.90
22769;DHT22;13001;51.968;5.918;2024-02-23T00:18:17;5.90;99.90
22769;DHT22;13001;51.968;5.918;2024-02-23T00:20:44;5.90;99.90
22769;DHT22;13001;51.968;5.918;2024-02-23T00:23:11;5.90;99.90
22769;DHT22;13001;51.968;5.918;2024-02-23T00:25:38;5.90;99.90
22769;DHT22;13001;51.968;5.918;2024-02-23T00:28:05;5.90;99.90
22769;DHT22;13001;51.968;5.918;2024-02-23T00:30:32;6.00;99.90
22769;DHT22;13001;51.968;5.918;2024-02-23T00:32:58;5.90;99.90
22769;DHT22;13001;51.968;5.918;2024-02-23T00:35:25;5.90;99.90
22769;DHT22;13001;51.968;5.918;2024-02-23T00:37:52;5.90;99.90
22769;DHT22;13001;51.968;5.918;2024-02-23T00:40:19;5.90;99.90
22769;DHT22;13001;51.968;5.918;2024-02-23T00:42:46;5.90;99.90
22769;DHT22;13001;51.968;5.918;2024-02-23T00:45:12;5.90;99.90
22769;DHT22;13001;51.968;5.918;2024-02-23T00:47:39;5.90;99.90
22769;DHT22;13001;51.968;5.918;2024-02-23T00:50:06;5.90;99.90
22769;DHT22;13001;51.968;5.918;2024-02-23T00:52:33;5.90;99.90
22769;DHT22;13001;51.968;5.918;2024-02-23T00:55:00;5.90;99.90
22769;DHT22;13001;51.968;5.918;2024-02-23T00:57:29;5.90;99.90
22769;DHT22;13001;51.968;5.918;2024-02-23T00:59:56;5.90;99.90
22769;DHT22;13001;51.968;5.918;2024-02-23T01:02:23;5.90;99.90
22769;DHT22;13001;51.968;5.918;2024-02-23T01:04:50;5.80;99.90
22769;DHT22;13001;51.968;5.918;2024-02-23T01:07:20;5.70;99.90
22769;DHT22;13001;51.968;5.918;2024-02-23T01:09:47;5.80;99.90
22769;DHT22;13001;51.968;5.918;2024-02-23T01:12:13;5.80;99.90
22769;DHT22;13001;51.968;5.918;2024-02-23T01:14:40;5.80;99.90
22769;DHT22;13001;51.968;5.918;2024-02-23T01:17:07;5.80;99.90
22769;DHT22;13001;51.968;5.918;2024-02-23T01:19:34;5.90;99.90
22769;DHT22;13001;51.968;5.918;2024-02-23T01:22:01;5.90;99.90
22769;DHT22;13001;51.968;5.918;2024-02-23T01:24:27;5.90;99.90
22769;DHT22;13001;51.968;5.918;2024-02-23T01:26:55;5.90;99.90
22769;DHT22;13001;51.968;5.918;2024-02-23T01:29:24;5.90;99.90
22769;DHT22;13001;51.968;5.918;2024-02-23T01:31:52;5.90;99.90
22769;DHT22;13001;51.968;5.918;2024-02-23T01:34:20;6.00;99.90
22769;DHT22;13001;51.968;5.918;2024-02-23T01:36:47;6.00;99.90
22769;DHT22;13001;51.968;5.918;2024-02-23T01:39:14;6.00;99.90
22769;DHT22;13001;51.968;5.918;2024-02-23T01:41:41;6.00;99.90
22769;DHT22;13001;51.968;5.918;2024-02-23T01:44:10;6.00;99.90
22769;DHT22;13001;51.968;5.918;2024-02-23T01:46:37;6.00;99.90
22769;DHT22;13001;51.968;5.918;2024-02-23T01:49:05;5.90;99.90
22769;DHT22;13001;51.968;5.918;2024-02-23T01:51:33;5.80;99.90
22769;DHT22;13001;51.968;5.918;2024-02-23T01:54:00;5.70;99.90
22769;DHT22;13001;51.968;5.918;2024-02-23T01:56:27;5.60;99.90
22769;DHT22;13001;51.968;5.918;2024-02-23T01:58:54;5.50;99.90
22769;DHT22;13001;51.968;5.918;2024-02-23T02:01:21;5.40;99.90
22769;DHT22;13001;51.968;5.918;2024-02-23T02:03:48;5.40;99.90
22769;DHT22;13001;51.968;5.918;2024-02-23T02:06:15;5.30;99.90
22769;DHT22;13001;51.968;5.918;2024-02-23T02:08:42;5.30;99.90
22769;DHT22;13001;51.968;5.918;2024-02-23T02:11:09;5.30;99.90
22769;DHT22;13001;51.968;5.918;2024-02-23T02:13:35;5.20;99.90
22769;DHT22;13001;51.968;5.918;2024-02-23T02:16:02;5.20;99.90
22769;DHT22;13001;51.968;5.918;2024-02-23T02:18:29;5.10;99.90
22769;DHT22;13001;51.968;5.918;2024-02-23T02:20:56;5.10;99.90
22769;DHT22;13001;51.968;5.918;2024-02-23T02:23:23;5.10;99.90
22769;DHT22;13001;51.968;5.918;2024-02-23T02:25:52;5.10;99.90
22769;DHT22;13001;51.968;5.918;2024-02-23T02:28:19;5.10;99.90
22769;DHT22;13001;51.968;5.918;2024-02-23T02:30:46;5.10;99.90
22769;DHT22;13001;51.968;5.918;2024-02-23T02:33:13;5.10;99.90
22769;DHT22;13001;51.968;5.918;2024-02-23T02:35:40;5.00;99.90
22769;DHT22;13001;51.968;5.918;2024-02-23T02:38:07;5.00;99.90
22769;DHT22;13001;51.968;5.918;2024-02-23T02:40:33;5.00;99.90
22769;DHT22;13001;51.968;5.918;2024-02-23T02:43:00;5.00;99.90
22769;DHT22;13001;51.968;5.918;2024-02-23T02:45:27;5.10;99.90
22769;DHT22;13001;51.968;5.918;2024-02-23T02:47:54;5.10;99.90
22769;DHT22;13001;51.968;5.918;2024-02-23T02:50:22;5.20;99.90
22769;DHT22;13001;51.968;5.918;2024-02-23T02:52:48;5.30;99.90
22769;DHT22;13001;51.968;5.918;2024-02-23T02:55:15;5.30;99.90
22769;DHT22;13001;51.968;5.918;2024-02-23T02:57:43;5.40;99.90
22769;DHT22;13001;51.968;5.918;2024-02-23T03:00:11;5.40;99.90
22769;DHT22;13001;51.968;5.918;2024-02-23T03:02:38;5.40;99.90
22769;DHT22;13001;51.968;5.918;2024-02-23T03:05:05;5.40;99.90
22769;DHT22;13001;51.968;5.918;2024-02-23T03:07:32;5.40;99.90
22769;DHT22;13001;51.968;5.918;2024-02-23T03:09:58;5.30;99.90
22769;DHT22;13001;51.968;5.918;2024-02-23T03:12:25;5.30;99.90
22769;DHT22;13001;51.968;5.918;2024-02-23T03:14:52;5.30;99.90
22769;DHT22;13001;51.968;5.918;2024-02-23T03:17:19;5.30;99.90
22769;DHT22;13001;51.968;5.918;2024-02-23T03:19:46;5.20;99.90
22769;DHT22;13001;51.968;5.918;2024-02-23T03:22:12;5.20;99.90
22769;DHT22;13001;51.968;5.918;2024-02-23T03:24:39;5.20;99.90
22769;DHT22;13001;51.968;5.918;2024-02-23T03:27:06;5.10;99.90
22769;DHT22;13001;51.968;5.918;2024-02-23T03:29:33;5.10;99.90
22769;DHT22;13001;51.968;5.918;2024-02-23T03:32:00;5.20;99.90
22769;DHT22;13001;51.968;5.918;2024-02-23T03:34:27;5.10;99.90
22769;DHT22;13001;51.968;5.918;2024-02-23T03:36:54;5.20;99.90
22769;DHT22;13001;51.968;5.918;2024-02-23T03:39:21;5.20;99.90
22769;DHT22;13001;51.968;5.918;2024-02-23T03:41:47;5.20;99.90
22769;DHT22;13001;51.968;5.918;2024-02-23T03:44:14;5.20;99.90
22769;DHT22;13001;51.968;5.918;2024-02-23T03:46:41;5.30;99.90
22769;DHT22;13001;51.968;5.918;2024-02-23T03:49:10;5.40;99.90
22769;DHT22;13001;51.968;5.918;2024-02-23T03:51:37;5.40;99.90
22769;DHT22;13001;51.968;5.918;2024-02-23T03:54:05;5.50;99.90
22769;DHT22;13001;51.968;5.918;2024-02-23T03:56:37;5.50;99.90
22769;DHT22;13001;51.968;5.918;2024-02-23T03:59:06;5.40;99.90
22769;DHT22;13001;51.968;5.918;2024-02-23T04:01:39;5.30;99.90
22769;DHT22;13001;51.968;5.918;2024-02-23T04:04:03;5.30;99.90
22769;DHT22;13001;51.968;5.918;2024-02-23T04:06:30;5.20;99.90
22769;DHT22;13001;51.968;5.918;2024-02-23T04:08:56;5.20;99.90
22769;DHT22;13001;51.968;5.918;2024-02-23T04:11:23;5.20;99.90
22769;DHT22;13001;51.968;5.918;2024-02-23T04:13:50;5.10;99.90
22769;DHT22;13001;51.968;5.918;2024-02-23T04:16:17;5.10;99.90
22769;DHT22;13001;51.968;5.918;2024-02-23T04:18:44;5.10;99.90
22769;DHT22;13001;51.968;5.918;2024-02-23T04:21:10;5.10;99.90
22769;DHT22;13001;51.968;5.918;2024-02-23T04:23:37;5.10;99.90
22769;DHT22;13001;51.968;5.918;2024-02-23T04:26:04;5.20;99.90
22769;DHT22;13001;51.968;5.918;2024-02-23T04:28:31;5.10;99.90
22769;DHT22;13001;51.968;5.918;2024-02-23T04:30:59;5.10;99.90
22769;DHT22;13001;51.968;5.918;2024-02-23T04:33:26;5.10;99.90
22769;DHT22;13001;51.968;5.918;2024-02-23T04:35:53;5.00;99.90
22769;DHT22;13001;51.968;5.918;2024-02-23T04:38:20;5.00;99.90
22769;DHT22;13001;51.968;5.918;2024-02-23T04:40:47;5.00;99.90
22769;DHT22;13001;51.968;5.918;2024-02-23T04:43:13;5.00;99.90
22769;DHT22;13001;51.968;5.918;2024-02-23T04:45:40;5.00;99.90
22769;DHT22;13001;51.968;5.918;2024-02-23T04:48:07;5.00;99.90
22769;DHT22;13001;51.968;5.918;2024-02-23T04:50:34;5.00;99.90
22769;DHT22;13001;51.968;5.918;2024-02-23T04:53:01;5.00;99.90
22769;DHT22;13001;51.968;5.918;2024-02-23T04:55:28;5.00;99.90
22769;DHT22;13001;51.968;5.918;2024-02-23T04:57:55;5.00;99.90
22769;DHT22;13001;51.968;5.918;2024-02-23T05:00:22;5.10;99.90
22769;DHT22;13001;51.968;5.918;2024-02-23T05:02:49;5.10;99.90
22769;DHT22;13001;51.968;5.918;2024-02-23T05:05:16;5.00;99.90
22769;DHT22;13001;51.968;5.918;2024-02-23T05:07:42;5.00;99.90
22769;DHT22;13001;51.968;5.918;2024-02-23T05:10:09;5.00;99.90
22769;DHT22;13001;51.968;5.918;2024-02-23T05:12:36;5.20;99.90
22769;DHT22;13001;51.968;5.918;2024-02-23T05:15:03;5.20;99.90
22769;DHT22;13001;51.968;5.918;2024-02-23T05:17:30;5.30;99.90
22769;DHT22;13001;51.968;5.918;2024-02-23T05:19:57;5.30;99.90
22769;DHT22;13001;51.968;5.918;2024-02-23T05:22:24;5.40;99.90
22769;DHT22;13001;51.968;5.918;2024-02-23T05:24:51;5.50;99.90
22769;DHT22;13001;51.968;5.918;2024-02-23T05:27:17;5.60;99.90
22769;DHT22;13001;51.968;5.918;2024-02-23T05:29:44;5.70;99.90
22769;DHT22;13001;51.968;5.918;2024-02-23T05:32:11;5.80;99.90
22769;DHT22;13001;51.968;5.918;2024-02-23T05:34:38;5.80;99.90
22769;DHT22;13001;51.968;5.918;2024-02-23T05:37:05;5.90;99.90
22769;DHT22;13001;51.968;5.918;2024-02-23T05:39:33;5.90;99.90
22769;DHT22;13001;51.968;5.918;2024-02-23T05:41:59;6.00;99.90
22769;DHT22;13001;51.968;5.918;2024-02-23T05:44:26;6.00;99.90
22769;DHT22;13001;51.968;5.918;2024-02-23T05:46:54;6.00;99.90
22769;DHT22;13001;51.968;5.918;2024-02-23T05:49:21;6.10;99.90
22769;DHT22;13001;51.968;5.918;2024-02-23T05:51:48;6.10;99.90
22769;DHT22;13001;51.968;5.918;2024-02-23T05:54:15;6.10;99.90
22769;DHT22;13001;51.968;5.918;2024-02-23T05:56:41;6.10;99.90
22769;DHT22;13001;51.968;5.918;2024-02-23T05:59:10;6.10;99.90
22769;DHT22;13001;51.968;5.918;2024-02-23T06:01:37;6.10;99.90
22769;DHT22;13001;51.968;5.918;2024-02-23T06:04:04;6.10;99.90
22769;DHT22;13001;51.968;5.918;2024-02-23T06:06:31;6.20;99.90
22769;DHT22;13001;51.968;5.918;2024-02-23T06:08:58;6.20;99.90
22769;DHT22;13001;51.968;5.918;2024-02-23T06:11:26;6.20;99.90
22769;DHT22;13001;51.968;5.918;2024-02-23T06:13:53;6.20;99.90
22769;DHT22;13001;51.968;5.918;2024-02-23T06:16:19;6.20;99.90
22769;DHT22;13001;51.968;5.918;2024-02-23T06:18:46;6.20;99.90
22769;DHT22;13001;51.968;5.918;2024-02-23T06:21:15;6.10;99.90
22769;DHT22;13001;51.968;5.918;2024-02-23T06:23:43;6.10;99.90
22769;DHT22;13001;51.968;5.918;2024-02-23T06:26:10;6.10;99.90
22769;DHT22;13001;51.968;5.918;2024-02-23T06:28:38;6.10;99.90
22769;DHT22;13001;51.968;5.918;2024-02-23T06:31:07;6.10;99.90
22769;DHT22;13001;51.968;5.918;2024-02-23T06:33:34;6.10;99.90
22769;DHT22;13001;51.968;5.918;2024-02-23T06:36:01;6.10;99.90
22769;DHT22;13001;51.968;5.918;2024-02-23T06:38:29;6.00;99.90
22769;DHT22;13001;51.968;5.918;2024-02-23T06:40:56;6.00;99.90
22769;DHT22;13001;51.968;5.918;2024-02-23T06:43:23;6.00;99.90
22769;DHT22;13001;51.968;5.918;2024-02-23T06:45:49;6.00;99.90
22769;DHT22;13001;51.968;5.918;2024-02-23T06:48:17;6.10;99.90
22769;DHT22;13001;51.968;5.918;2024-02-23T06:50:43;6.10;99.90
22769;DHT22;13001;51.968;5.918;2024-02-23T06:53:10;6.20;99.90
22769;DHT22;13001;51.968;5.918;2024-02-23T06:55:37;6.30;99.90
22769;DHT22;13001;51.968;5.918;2024-02-23T06:58:04;6.30;99.90
22769;DHT22;13001;51.968;5.918;2024-02-23T07:00:32;6.30;99.90
22769;DHT22;13001;51.968;5.918;2024-02-23T07:02:59;6.40;99.90
22769;DHT22;13001;51.968;5.918;2024-02-23T07:05:27;6.40;99.90
22769;DHT22;13001;51.968;5.918;2024-02-23T07:07:54;6.50;99.90
22769;DHT22;13001;51.968;5.918;2024-02-23T07:10:21;6.50;99.90
22769;DHT22;13001;51.968;5.918;2024-02-23T07:12:50;6.50;99.90
22769;DHT22;13001;51.968;5.918;2024-02-23T07:15:19;6.50;99.90
22769;DHT22;13001;51.968;5.918;2024-02-23T07:17:46;6.60;99.90
22769;DHT22;13001;51.968;5.918;2024-02-23T07:20:13;6.60;99.90
22769;DHT22;13001;51.968;5.918;2024-02-23T07:22:47;6.60;99.90
22769;DHT22;13001;51.968;5.918;2024-02-23T07:25:10;6.70;99.90
22769;DHT22;13001;51.968;5.918;2024-02-23T07:27:37;6.70;99.90
22769;DHT22;13001;51.968;5.918;2024-02-23T07:30:04;6.80;99.90
22769;DHT22;13001;51.968;5.918;2024-02-23T07:32:31;6.90;99.90
22769;DHT22;13001;51.968;5.918;2024-02-23T07:34:58;6.90;99.90
22769;DHT22;13001;51.968;5.918;2024-02-23T07:37:29;6.90;99.90
22769;DHT22;13001;51.968;5.918;2024-02-23T07:39:53;6.90;99.90
22769;DHT22;13001;51.968;5.918;2024-02-23T07:42:20;6.90;99.90
22769;DHT22;13001;51.968;5.918;2024-02-23T07:44:47;6.90;99.90
22769;DHT22;13001;51.968;5.918;2024-02-23T07:47:13;7.00;99.90
22769;DHT22;13001;51.968;5.918;2024-02-23T07:49:40;7.00;99.90
22769;DHT22;13001;51.968;5.918;2024-02-23T07:52:07;7.00;99.90
22769;DHT22;13001;51.968;5.918;2024-02-23T07:54:34;7.10;99.90
22769;DHT22;13001;51.968;5.918;2024-02-23T07:57:01;7.10;99.90
22769;DHT22;13001;51.968;5.918;2024-02-23T07:59:29;7.20;99.90
22769;DHT22;13001;51.968;5.918;2024-02-23T08:01:56;7.30;99.90
22769;DHT22;13001;51.968;5.918;2024-02-23T08:04:23;7.30;99.90
22769;DHT22;13001;51.968;5.918;2024-02-23T08:06:50;7.40;99.90
22769;DHT22;13001;51.968;5.918;2024-02-23T08:09:17;7.40;99.90
22769;DHT22;13001;51.968;5.918;2024-02-23T08:11:43;7.50;99.90
22769;DHT22;13001;51.968;5.918;2024-02-23T08:14:11;7.50;99.90
22769;DHT22;13001;51.968;5.918;2024-02-23T08:16:38;7.70;99.90
22769;DHT22;13001;51.968;5.918;2024-02-23T08:19:05;7.90;99.90
22769;DHT22;13001;51.968;5.918;2024-02-23T08:21:32;8.10;99.90
22769;DHT22;13001;51.968;5.918;2024-02-23T08:23:58;8.10;99.90
22769;DHT22;13001;51.968;5.918;2024-02-23T08:26:25;8.20;99.90
22769;DHT22;13001;51.968;5.918;2024-02-23T08:28:52;8.10;99.90
22769;DHT22;13001;51.968;5.918;2024-02-23T08:31:19;8.10;99.90
22769;DHT22;13001;51.968;5.918;2024-02-23T08:33:46;8.10;99.90
22769;DHT22;13001;51.968;5.918;2024-02-23T08:36:12;8.00;99.90
22769;DHT22;13001;51.968;5.918;2024-02-23T08:38:39;8.10;99.90
22769;DHT22;13001;51.968;5.918;2024-02-23T08:41:06;8.20;99.90
22769;DHT22;13001;51.968;5.918;2024-02-23T08:43:34;8.30;99.90
22769;DHT22;13001;51.968;5.918;2024-02-23T08:46:02;8.50;99.90
22769;DHT22;13001;51.968;5.918;2024-02-23T08:48:29;8.50;99.90
22769;DHT22;13001;51.968;5.918;2024-02-23T08:50:56;8.70;99.90
22769;DHT22;13001;51.968;5.918;2024-02-23T08:53:23;8.90;99.90
22769;DHT22;13001;51.968;5.918;2024-02-23T08:55:49;9.30;99.90
22769;DHT22;13001;51.968;5.918;2024-02-23T08:58:16;10.00;99.90
22769;DHT22;13001;51.968;5.918;2024-02-23T09:00:43;10.70;99.90
22769;DHT22;13001;51.968;5.918;2024-02-23T09:03:10;10.70;99.90
22769;DHT22;13001;51.968;5.918;2024-02-23T09:05:37;10.50;99.90
22769;DHT22;13001;51.968;5.918;2024-02-23T09:08:04;10.30;99.90
22769;DHT22;13001;51.968;5.918;2024-02-23T09:10:31;10.00;99.90
22769;DHT22;13001;51.968;5.918;2024-02-23T09:12:58;9.70;99.90
22769;DHT22;13001;51.968;5.918;2024-02-23T09:15:25;9.50;99.90
22769;DHT22;13001;51.968;5.918;2024-02-23T09:17:52;9.30;99.90
22769;DHT22;13001;51.968;5.918;2024-02-23T09:20:18;9.10;99.90
22769;DHT22;13001;51.968;5.918;2024-02-23T09:22:46;9.00;99.90
22769;DHT22;13001;51.968;5.918;2024-02-23T09:25:13;8.90;99.90
22769;DHT22;13001;51.968;5.918;2024-02-23T09:27:39;8.90;99.90
22769;DHT22;13001;51.968;5.918;2024-02-23T09:30:09;9.00;99.90
22769;DHT22;13001;51.968;5.918;2024-02-23T09:32:36;9.10;99.90
22769;DHT22;13001;51.968;5.918;2024-02-23T09:35:03;9.00;99.90
22769;DHT22;13001;51.968;5.918;2024-02-23T09:37:30;8.90;99.90
22769;DHT22;13001;51.968;5.918;2024-02-23T09:39:57;8.80;99.90
22769;DHT22;13001;51.968;5.918;2024-02-23T09:42:25;8.60;99.90
22769;DHT22;13001;51.968;5.918;2024-02-23T09:44:57;8.50;99.90
22769;DHT22;13001;51.968;5.918;2024-02-23T09:47:24;8.40;99.90
22769;DHT22;13001;51.968;5.918;2024-02-23T09:49:50;8.40;99.90
22769;DHT22;13001;51.968;5.918;2024-02-23T09:52:18;8.30;99.90
22769;DHT22;13001;51.968;5.918;2024-02-23T09:54:45;8.40;99.90
22769;DHT22;13001;51.968;5.918;2024-02-23T09:57:12;8.50;99.90
22769;DHT22;13001;51.968;5.918;2024-02-23T09:59:40;8.60;99.90
22769;DHT22;13001;51.968;5.918;2024-02-23T10:02:08;8.60;99.90
22769;DHT22;13001;51.968;5.918;2024-02-23T10:04:36;8.70;99.90
22769;DHT22;13001;51.968;5.918;2024-02-23T10:07:05;8.70;99.90
22769;DHT22;13001;51.968;5.918;2024-02-23T10:09:32;8.70;99.90
22769;DHT22;13001;51.968;5.918;2024-02-23T10:11:59;8.70;99.90
22769;DHT22;13001;51.968;5.918;2024-02-23T10:14:27;8.70;99.90
22769;DHT22;13001;51.968;5.918;2024-02-23T10:16:54;8.80;99.90
22769;DHT22;13001;51.968;5.918;2024-02-23T10:19:21;8.90;99.90
22769;DHT22;13001;51.968;5.918;2024-02-23T10:21:48;9.00;99.90
22769;DHT22;13001;51.968;5.918;2024-02-23T10:24:18;9.00;99.90
22769;DHT22;13001;51.968;5.918;2024-02-23T10:26:46;9.00;99.90
22769;DHT22;13001;51.968;5.918;2024-02-23T10:29:13;8.90;99.90
22769;DHT22;13001;51.968;5.918;2024-02-23T10:31:40;8.80;99.90
22769;DHT22;13001;51.968;5.918;2024-02-23T10:34:09;8.80;99.90
22769;DHT22;13001;51.968;5.918;2024-02-23T10:36:41;8.80;99.90
22769;DHT22;13001;51.968;5.918;2024-02-23T10:39:08;8.70;99.90
22769;DHT22;13001;51.968;5.918;2024-02-23T10:41:35;8.70;99.90
22769;DHT22;13001;51.968;5.918;2024-02-23T10:44:04;8.60;99.90
22769;DHT22;13001;51.968;5.918;2024-02-23T10:46:32;8.50;99.90
22769;DHT22;13001;51.968;5.918;2024-02-23T10:48:59;8.50;99.90
22769;DHT22;13001;51.968;5.918;2024-02-23T10:51:26;8.50;99.90
22769;DHT22;13001;51.968;5.918;2024-02-23T10:53:53;8.70;99.90
22769;DHT22;13001;51.968;5.918;2024-02-23T10:56:20;8.90;99.90
22769;DHT22;13001;51.968;5.918;2024-02-23T10:58:48;9.10;99.90
22769;DHT22;13001;51.968;5.918;2024-02-23T11:01:15;9.20;99.90
22769;DHT22;13001;51.968;5.918;2024-02-23T11:03:42;9.30;99.90
22769;DHT22;13001;51.968;5.918;2024-02-23T11:06:11;9.30;99.90
22769;DHT22;13001;51.968;5.918;2024-02-23T11:08:38;9.30;99.90
22769;DHT22;13001;51.968;5.918;2024-02-23T11:11:08;9.30;99.90
22769;DHT22;13001;51.968;5.918;2024-02-23T11:13:39;9.30;99.90
22769;DHT22;13001;51.968;5.918;2024-02-23T11:16:06;9.20;99.90
22769;DHT22;13001;51.968;5.918;2024-02-23T11:18:35;9.20;99.90
22769;DHT22;13001;51.968;5.918;2024-02-23T11:21:03;9.20;99.90
22769;DHT22;13001;51.968;5.918;2024-02-23T11:23:49;9.10;99.90
22769;DHT22;13001;51.968;5.918;2024-02-23T11:26:17;9.20;99.90
22769;DHT22;13001;51.968;5.918;2024-02-23T11:31:15;9.20;99.90
22769;DHT22;13001;51.968;5.918;2024-02-23T11:33:49;9.10;99.90
22769;DHT22;13001;51.968;5.918;2024-02-23T11:36:29;9.10;99.90
22769;DHT22;13001;51.968;5.918;2024-02-23T11:38:58;9.10;99.90
22769;DHT22;13001;51.968;5.918;2024-02-23T11:41:25;9.20;99.90
22769;DHT22;13001;51.968;5.918;2024-02-23T11:43:52;9.20;99.90
22769;DHT22;13001;51.968;5.918;2024-02-23T11:46:21;9.20;99.90
22769;DHT22;13001;51.968;5.918;2024-02-23T11:48:48;9.30;99.90
22769;DHT22;13001;51.968;5.918;2024-02-23T11:51:22;9.30;99.90
22769;DHT22;13001;51.968;5.918;2024-02-23T11:53:50;9.30;99.90
22769;DHT22;13001;51.968;5.918;2024-02-23T11:56:17;9.50;99.90
22769;DHT22;13001;51.968;5.918;2024-02-23T11:58:46;9.60;99.90
22769;DHT22;13001;51.968;5.918;2024-02-23T12:01:13;9.70;99.90
22769;DHT22;13001;51.968;5.918;2024-02-23T12:03:40;9.80;99.90
22769;DHT22;13001;51.968;5.918;2024-02-23T12:06:08;9.80;99.90
22769;DHT22;13001;51.968;5.918;2024-02-23T12:08:36;9.80;99.90
22769;DHT22;13001;51.968;5.918;2024-02-23T12:11:07;9.70;99.90
22769;DHT22;13001;51.968;5.918;2024-02-23T12:13:35;9.60;99.90
22769;DHT22;13001;51.968;5.918;2024-02-23T12:16:02;9.50;99.90
22769;DHT22;13001;51.968;5.918;2024-02-23T12:18:29;9.50;99.90
22769;DHT22;13001;51.968;5.918;2024-02-23T12:20:59;9.40;99.90
22769;DHT22;13001;51.968;5.918;2024-02-23T12:23:27;9.30;99.90
22769;DHT22;13001;51.968;5.918;2024-02-23T12:25:54;9.30;99.90
22769;DHT22;13001;51.968;5.918;2024-02-23T12:28:21;9.30;99.90
22769;DHT22;13001;51.968;5.918;2024-02-23T12:30:58;9.20;99.90
22769;DHT22;13001;51.968;5.918;2024-02-23T12:33:16;9.10;99.90
22769;DHT22;13001;51.968;5.918;2024-02-23T12:35:43;9.10;99.90
22769;DHT22;13001;51.968;5.918;2024-02-23T12:38:10;9.10;99.90
22769;DHT22;13001;51.968;5.918;2024-02-23T12:40:37;9.10;99.90
22769;DHT22;13001;51.968;5.918;2024-02-23T12:43:04;9.10;99.90
22769;DHT22;13001;51.968;5.918;2024-02-23T12:45:31;9.20;99.90
22769;DHT22;13001;51.968;5.918;2024-02-23T12:47:58;9.30;99.90
22769;DHT22;13001;51.968;5.918;2024-02-23T12:50:25;9.40;99.90
22769;DHT22;13001;51.968;5.918;2024-02-23T12:52:51;9.50;99.90
22769;DHT22;13001;51.968;5.918;2024-02-23T12:55:18;9.60;99.90
22769;DHT22;13001;51.968;5.918;2024-02-23T12:57:46;9.70;99.90
22769;DHT22;13001;51.968;5.918;2024-02-23T13:00:14;9.70;99.90
22769;DHT22;13001;51.968;5.918;2024-02-23T13:02:41;9.80;99.90
22769;DHT22;13001;51.968;5.918;2024-02-23T13:05:08;9.80;99.90
22769;DHT22;13001;51.968;5.918;2024-02-23T13:07:35;9.70;99.90
22769;DHT22;13001;51.968;5.918;2024-02-23T13:10:03;9.60;99.90
22769;DHT22;13001;51.968;5.918;2024-02-23T13:12:30;9.60;99.90
22769;DHT22;13001;51.968;5.918;2024-02-23T13:14:57;9.50;99.90
22769;DHT22;13001;51.968;5.918;2024-02-23T13:17:24;9.50;99.90
22769;DHT22;13001;51.968;5.918;2024-02-23T13:19:51;9.50;99.90
22769;DHT22;13001;51.968;5.918;2024-02-23T13:22:18;9.50;99.90
22769;DHT22;13001;51.968;5.918;2024-02-23T13:24:45;9.60;99.90
22769;DHT22;13001;51.968;5.918;2024-02-23T13:27:11;9.90;99.90
22769;DHT22;13001;51.968;5.918;2024-02-23T13:29:38;10.30;99.90
22769;DHT22;13001;51.968;5.918;2024-02-23T13:32:05;10.60;99.90
22769;DHT22;13001;51.968;5.918;2024-02-23T13:34:33;10.90;99.90
22769;DHT22;13001;51.968;5.918;2024-02-23T13:36:59;11.10;99.90
22769;DHT22;13001;51.968;5.918;2024-02-23T13:39:26;11.30;99.90
22769;DHT22;13001;51.968;5.918;2024-02-23T13:41:53;11.30;99.90
22769;DHT22;13001;51.968;5.918;2024-02-23T13:44:20;11.20;99.90
22769;DHT22;13001;51.968;5.918;2024-02-23T13:46:47;11.20;99.90
22769;DHT22;13001;51.968;5.918;2024-02-23T13:49:13;11.10;99.90
22769;DHT22;13001;51.968;5.918;2024-02-23T13:51:40;11.00;99.90
22769;DHT22;13001;51.968;5.918;2024-02-23T13:54:07;10.90;99.90
22769;DHT22;13001;51.968;5.918;2024-02-23T13:56:34;10.80;99.90
22769;DHT22;13001;51.968;5.918;2024-02-23T13:59:02;10.90;99.90
22769;DHT22;13001;51.968;5.918;2024-02-23T14:01:30;10.90;99.90
22769;DHT22;13001;51.968;5.918;2024-02-23T14:03:57;10.90;99.90
22769;DHT22;13001;51.968;5.918;2024-02-23T14:06:24;10.90;99.90
22769;DHT22;13001;51.968;5.918;2024-02-23T14:08:51;11.00;99.90
22769;DHT22;13001;51.968;5.918;2024-02-23T14:11:18;11.10;99.90
22769;DHT22;13001;51.968;5.918;2024-02-23T14:13:45;11.20;99.90
22769;DHT22;13001;51.968;5.918;2024-02-23T14:16:12;11.30;99.90
22769;DHT22;13001;51.968;5.918;2024-02-23T14:18:39;11.30;99.90
22769;DHT22;13001;51.968;5.918;2024-02-23T14:21:07;11.20;99.90
22769;DHT22;13001;51.968;5.918;2024-02-23T14:23:36;11.10;99.90
22769;DHT22;13001;51.968;5.918;2024-02-23T14:26:03;11.10;99.90
22769;DHT22;13001;51.968;5.918;2024-02-23T14:28:30;11.10;99.90
22769;DHT22;13001;51.968;5.918;2024-02-23T14:30:57;10.90;99.90
22769;DHT22;13001;51.968;5.918;2024-02-23T14:33:25;10.90;99.90
22769;DHT22;13001;51.968;5.918;2024-02-23T14:35:52;10.70;99.90
22769;DHT22;13001;51.968;5.918;2024-02-23T14:38:19;10.70;99.90
22769;DHT22;13001;51.968;5.918;2024-02-23T14:40:45;10.70;99.90
22769;DHT22;13001;51.968;5.918;2024-02-23T14:43:12;10.70;99.90
22769;DHT22;13001;51.968;5.918;2024-02-23T14:45:39;10.70;99.90
22769;DHT22;13001;51.968;5.918;2024-02-23T14:48:06;10.50;99.90
22769;DHT22;13001;51.968;5.918;2024-02-23T14:50:33;10.40;99.90
22769;DHT22;13001;51.968;5.918;2024-02-23T14:53:00;10.30;99.90
22769;DHT22;13001;51.968;5.918;2024-02-23T14:55:27;10.20;99.90
22769;DHT22;13001;51.968;5.918;2024-02-23T14:57:53;10.00;99.90
22769;DHT22;13001;51.968;5.918;2024-02-23T15:00:20;9.90;99.90
22769;DHT22;13001;51.968;5.918;2024-02-23T15:02:47;9.80;99.90
22769;DHT22;13001;51.968;5.918;2024-02-23T15:05:14;9.70;99.90
22769;DHT22;13001;51.968;5.918;2024-02-23T15:07:41;9.70;99.90
22769;DHT22;13001;51.968;5.918;2024-02-23T15:10:07;9.80;99.90
22769;DHT22;13001;51.968;5.918;2024-02-23T15:12:35;9.90;99.90
22769;DHT22;13001;51.968;5.918;2024-02-23T15:15:02;9.90;99.90
22769;DHT22;13001;51.968;5.918;2024-02-23T15:17:30;9.80;99.90
22769;DHT22;13001;51.968;5.918;2024-02-23T15:19:56;9.70;99.90
22769;DHT22;13001;51.968;5.918;2024-02-23T15:22:23;9.60;99.90
22769;DHT22;13001;51.968;5.918;2024-02-23T15:24:51;9.60;99.90
22769;DHT22;13001;51.968;5.918;2024-02-23T15:27:18;9.50;99.90
22769;DHT22;13001;51.968;5.918;2024-02-23T15:29:45;9.50;99.90
22769;DHT22;13001;51.968;5.918;2024-02-23T15:32:13;9.50;99.90
22769;DHT22;13001;51.968;5.918;2024-02-23T15:34:41;9.40;99.90
22769;DHT22;13001;51.968;5.918;2024-02-23T15:37:08;9.50;99.90
22769;DHT22;13001;51.968;5.918;2024-02-23T15:39:34;9.50;99.90
22769;DHT22;13001;51.968;5.918;2024-02-23T15:42:01;9.50;99.90
22769;DHT22;13001;51.968;5.918;2024-02-23T15:44:30;9.40;99.90
22769;DHT22;13001;51.968;5.918;2024-02-23T15:46:56;9.40;99.90